Terminal Aerodrome Forecast
Issued by NWS St Louis, MO

Home | Current Version | Previous Version | Graphics & Text | Print | Product List | Glossary On
Versions: 1 2 3 4 5 6 7 8 9 10 11 12 13 14 15 16 17 18 19 20 21 22 23 24 25 26 27
115
FTUS43 KLSX 222028 AAA
TAFSTL
TAF AMD
KSTL 222028Z 2220/2324 12007KT P6SM SCT040 BKN250
     FM230100 14005KT P6SM BKN250
     FM231500 20008KT P6SM SCT040 BKN250=

USA.gov is the U.S. government's official web portal to all federal, state and local government web resources and services.